Strona główna
METAR-TAF:

METAR-TAF

Lotnisko :

Port lotniczy Biak-Frans Kaisiepo

Biak, Indonezja

Szerokość geograficzna: 01-11S, Długość geograficzna: 136-07E, wysokość: 11 m

Aktualna obserwacja pogody

Raport powstał 21 minut temu, godzina 14:00 UTC
Cisza
Temperatura 26°C
Wilgotność 94%
Ciśnienie 1009 hPa
Widzialność 10 km lub więcej
Mało chmury na wysokości 1800 ft

METAR: WABB 211400Z 00000KT 9999 FEW018 26/25 Q1009 NOSIG

czas: 21:21 (14:21 UTC)

Prognoza

Raport powstał 3 godziny i 21 minut temu, godzina 11:00 UTC
Prognoza ważna od 21 godzina 12 UTC do 22 godzina 18 UTC
Wiatr 5 kt od północno-północny zachód
Widzialność 10 km lub więcej
Rozproszone chmury na wysokości 1800 ft

TAF: WABB 211100Z 2112/2218 34005KT 9999 SCT018

Obserwacja i prognoza pogody dla ponad 4000 lotnisk (raport METAR i TAF).

Dostępne stacje oznaczono żółtymi i czerwonymi punktami na mapie.

Najedź kursorem aby zobaczyć nazwę stacji.

Kliknij aby zobaczyć obserwacje i prognozy pogody.

Aby zmienić mapę: kliknij na zielony przycisk z czarnym krzyżykiem, aby powiększyć; na zielony przycisk z myślnikiem, aby pomniejszyć; na zielone strzałki, aby przejść do map sąsiednich.


METAR-TAF: